Time;durP1;ratioP1;P1;durP2;ratioP2;P2;SDS_P1;SDS_P2;PMS_P1;PMS_P2;Temp;Humidity;BMP_temperature;BMP_pressure;BME280_temperature;BME280_humidity;BME280_pressure;Samples;Min_cycle;Max_cycle;Signal;HPM_P1;HPM_P2
2022/02/23 00:01:13;;;;;;;1999.90;999.90;;;;;;;4.03;81.47;163471.22;4947963;28;20097;-67
2022/02/23 00:03:40;;;;;;;1999.90;999.90;;;;;;;3.92;82.17;163442.44;4943663;28;20153;-68
2022/02/23 00:06:07;;;;;;;1999.90;999.90;;;;;;;3.99;81.90;163460.25;4942554;28;20078;-68
2022/02/23 00:08:34;;;;;;;1999.90;999.90;;;;;;;3.64;83.59;163367.03;4944564;28;20047;-68
2022/02/23 00:11:00;;;;;;;1999.90;999.90;;;;;;;4.08;82.02;163484.97;4948367;28;20110;-68
2022/02/23 00:13:27;;;;;;;1999.90;999.90;;;;;;;4.44;80.76;163580.94;4942728;29;20114;-68
2022/02/23 00:15:57;;;;;;;1999.90;999.90;;;;;;;4.35;80.15;163556.28;4945232;28;20066;-68
2022/02/23 00:18:23;;;;;;;1999.90;999.90;;;;;;;4.64;80.04;163633.06;4945225;28;20051;-68
2022/02/23 00:20:50;;;;;;;1999.90;999.90;;;;;;;4.33;80.93;163550.75;4948605;28;20090;-68
2022/02/23 00:23:19;;;;;;;1999.90;999.90;;;;;;;4.59;79.81;163622.06;4946698;29;20480;-68
2022/02/23 00:25:46;;;;;;;1999.90;999.90;;;;;;;4.34;80.69;163553.53;4944062;28;20110;-68
2022/02/23 00:28:12;;;;;;;1999.90;999.90;;;;;;;4.10;81.37;163489.06;4943564;28;20149;-68
2022/02/23 00:30:39;;;;;;;1999.90;999.90;;;;;;;4.11;81.63;163491.78;4947585;28;20047;-68
2022/02/23 00:33:05;;;;;;;1999.90;999.90;;;;;;;4.21;81.23;163520.63;4945307;29;20086;-68
2022/02/23 00:35:32;;;;;;;1999.90;999.90;;;;;;;4.00;81.81;163463.00;4941858;28;20086;-68
2022/02/23 00:37:58;;;;;;;1999.90;999.90;;;;;;;4.01;82.13;163465.75;4942601;28;20409;-68
2022/02/23 00:40:25;;;;;;;1999.90;999.90;;;;;;;4.02;81.96;163469.88;4946170;28;20051;-68
2022/02/23 00:42:53;;;;;;;1999.90;999.90;;;;;;;4.15;82.04;163502.75;4946853;29;20094;-68
2022/02/23 00:45:20;;;;;;;1999.90;999.90;;;;;;;4.21;81.87;163520.63;4942592;28;20055;-68
2022/02/23 00:47:48;;;;;;;1999.90;999.90;;;;;;;3.94;83.08;163446.56;4942819;28;20061;-68
2022/02/23 00:50:15;;;;;;;1999.90;999.90;;;;;;;3.93;83.33;163445.22;4944558;28;20445;-68
2022/02/23 00:52:42;;;;;;;1999.90;999.90;;;;;;;3.67;84.29;163375.28;4948231;29;20058;-68
2022/02/23 00:55:09;;;;;;;1999.90;999.90;;;;;;;3.81;84.74;163413.66;4943339;28;20079;-68
2022/02/23 00:57:35;;;;;;;1999.90;999.90;;;;;;;3.61;86.01;163358.81;4942923;28;20055;-68
2022/02/23 01:00:04;;;;;;;1999.90;999.90;;;;;;;3.70;86.18;163383.50;4959413;28;20052;-68
2022/02/23 01:02:31;;;;;;;1999.90;999.90;;;;;;;3.78;86.34;163405.44;4948559;29;20054;-68
2022/02/23 01:04:57;;;;;;;1999.90;999.90;;;;;;;3.65;87.14;163369.81;4943480;28;20475;-68
2022/02/23 01:07:24;;;;;;;1999.90;999.90;;;;;;;3.90;86.88;163436.97;4943068;28;20047;-68
2022/02/23 01:09:50;;;;;;;1999.90;999.90;;;;;;;4.03;86.55;163472.63;4945078;28;20051;-68
2022/02/23 01:12:17;;;;;;;1999.90;999.90;;;;;;;4.08;86.24;163484.97;4946962;29;20102;-68
2022/02/23 01:14:44;;;;;;;1999.90;999.90;;;;;;;4.19;86.49;163513.75;4942699;28;20078;-68
2022/02/23 01:17:11;;;;;;;1999.90;999.90;;;;;;;4.10;86.53;163490.44;4941139;28;20051;-68
2022/02/23 01:19:38;;;;;;;1999.90;999.90;;;;;;;4.11;87.36;163493.19;4943198;28;20052;-68
2022/02/23 01:22:05;;;;;;;1999.90;999.90;;;;;;;4.02;87.92;163469.88;4947587;28;20483;-68
2022/02/23 01:24:32;;;;;;;1999.90;999.90;;;;;;;4.37;86.57;163561.75;4943551;29;20141;-68
2022/02/23 01:26:59;;;;;;;1999.90;999.90;;;;;;;4.63;85.37;163630.31;4942886;28;20740;-68
2022/02/23 01:29:26;;;;;;;1999.90;999.90;;;;;;;4.16;87.07;163506.88;4942128;28;20055;-68
2022/02/23 01:31:52;;;;;;;1999.90;999.90;;;;;;;3.96;87.89;163452.03;4951069;28;20137;-68
2022/02/23 01:34:19;;;;;;;1999.90;999.90;;;;;;;4.05;87.20;163478.09;4947637;29;20093;-68
2022/02/23 01:36:45;;;;;;;1999.90;999.90;;;;;;;4.28;86.69;163537.06;4946203;28;20047;-68
2022/02/23 01:39:12;;;;;;;1999.90;999.90;;;;;;;4.66;85.37;163638.53;4946617;28;20455;-68
2022/02/23 01:41:38;;;;;;;1999.90;999.90;;;;;;;4.51;85.54;163600.16;4952499;28;20117;-68
2022/02/23 01:44:05;;;;;;;1999.90;999.90;;;;;;;4.79;83.91;163672.84;4949160;29;20083;-68
2022/02/23 01:46:31;;;;;;;1999.90;999.90;;;;;;;4.52;84.11;163601.50;4947395;28;20409;-68
2022/02/23 01:48:58;;;;;;;1999.90;999.90;;;;;;;4.61;84.77;163624.84;4945931;28;20114;-68
2022/02/23 01:51:24;;;;;;;1999.90;999.90;;;;;;;4.38;85.13;163564.50;4946396;28;20083;-69
2022/02/23 01:53:51;;;;;;;1999.90;999.90;;;;;;;4.20;85.92;163516.50;4948604;29;20389;-68
2022/02/23 01:56:17;;;;;;;1999.90;999.90;;;;;;;4.11;86.38;163493.19;4945433;28;20071;-67
2022/02/23 01:58:44;;;;;;;1999.90;999.90;;;;;;;4.08;86.92;163484.97;4945947;28;20094;-67
2022/02/23 02:01:10;;;;;;;1999.90;999.90;;;;;;;3.95;87.16;163449.31;4951101;28;20039;-67
2022/02/23 02:03:37;;;;;;;1999.90;999.90;;;;;;;3.92;87.72;163442.44;4949311;29;20059;-67
2022/02/23 02:06:04;;;;;;;1999.90;999.90;;;;;;;3.90;88.57;163436.97;4944658;28;20090;-67
2022/02/23 02:08:30;;;;;;;1999.90;999.90;;;;;;;4.08;87.94;163484.97;4946125;28;20098;-68
2022/02/23 02:10:56;;;;;;;1999.90;999.90;;;;;;;3.96;89.00;163452.03;4950221;28;20098;-67
2022/02/23 02:13:23;;;;;;;1999.90;999.90;;;;;;;4.09;89.56;163486.31;4964509;29;20056;-66
2022/02/23 02:15:49;;;;;;;1999.90;999.90;;;;;;;4.18;89.60;163512.41;4956470;28;20058;-68
2022/02/23 02:18:16;;;;;;;1999.90;999.90;;;;;;;4.31;89.63;163545.28;4944878;28;20047;-68
2022/02/23 02:20:42;;;;;;;1999.90;999.90;;;;;;;4.07;90.76;163482.22;4948540;28;20440;-68
2022/02/23 02:23:09;;;;;;;1999.90;999.90;;;;;;;4.00;91.69;163463.00;4949426;29;20055;-68
2022/02/23 02:25:35;;;;;;;1999.90;999.90;;;;;;;4.29;91.07;163541.19;4945288;28;20056;-68
2022/02/23 02:28:04;;;;;;;1999.90;999.90;;;;;;;4.18;91.51;163511.00;4944981;28;20087;-68
2022/02/23 02:30:30;;;;;;;1999.90;999.90;;;;;;;4.19;91.95;163513.75;4947859;28;20640;-68
2022/02/23 02:32:57;;;;;;;1999.90;999.90;;;;;;;4.12;91.87;163494.53;4948092;29;20075;-68
2022/02/23 02:35:24;;;;;;;1999.90;999.90;;;;;;;3.86;93.48;163426.00;4944608;28;20109;-68
2022/02/23 02:37:51;;;;;;;1999.90;999.90;;;;;;;4.42;92.19;163575.44;4945505;28;20078;-68
2022/02/23 02:40:19;;;;;;;1999.90;999.90;;;;;;;4.13;93.87;163497.31;4942066;28;20134;-66
2022/02/23 02:42:45;;;;;;;1999.90;999.90;;;;;;;4.01;96.01;163467.13;4950183;29;20047;-68
2022/02/23 02:45:12;;;;;;;1999.90;999.90;;;;;;;3.78;98.30;163405.44;4942492;28;20145;-68
2022/02/23 02:47:39;;;;;;;1999.90;999.90;;;;;;;3.93;99.60;163443.81;4944736;28;20051;-67
2022/02/23 02:50:05;;;;;;;1999.90;999.90;;;;;;;3.66;100.00;163373.91;4945888;28;20055;-67
2022/02/23 02:52:32;;;;;;;1999.90;999.90;;;;;;;3.76;100.00;163399.94;4950704;29;20106;-67
2022/02/23 02:54:59;;;;;;;1999.90;999.90;;;;;;;3.87;100.00;163428.72;4945489;28;20157;-67
2022/02/23 02:57:26;;;;;;;1999.90;999.90;;;;;;;3.84;100.00;163421.88;4944982;28;20056;-67
2022/02/23 02:59:52;;;;;;;1999.90;999.90;;;;;;;3.86;100.00;163427.34;4944835;28;20043;-67
2022/02/23 03:02:19;;;;;;;1999.90;999.90;;;;;;;3.37;100.00;163295.78;4950124;28;20083;-67
2022/02/23 03:04:45;;;;;;;1999.90;999.90;;;;;;;3.88;100.00;163432.88;4945444;28;20090;-67
2022/02/23 03:07:12;;;;;;;1999.90;999.90;;;;;;;3.79;100.00;163408.16;4944103;28;20079;-67
2022/02/23 03:09:38;;;;;;;1999.90;999.90;;;;;;;3.93;100.00;163443.81;4944825;28;20098;-67
2022/02/23 03:12:05;;;;;;;1999.90;999.90;;;;;;;3.78;100.00;163405.44;4949495;28;20432;-67
2022/02/23 03:14:31;;;;;;;1999.90;999.90;;;;;;;3.44;100.00;163313.56;4945986;28;20452;-67
2022/02/23 03:16:58;;;;;;;1999.90;999.90;;;;;;;3.58;100.00;163350.59;4944716;28;20126;-66
2022/02/23 03:19:24;;;;;;;1999.90;999.90;;;;;;;3.48;100.00;163324.53;4945425;28;20079;-66
2022/02/23 03:21:51;;;;;;;1999.90;999.90;;;;;;;3.68;100.00;163378.03;4948602;28;20106;-66
2022/02/23 03:24:17;;;;;;;1999.90;999.90;;;;;;;3.44;100.00;163314.97;4945914;28;20102;-66
2022/02/23 03:26:44;;;;;;;1999.90;999.90;;;;;;;3.30;100.00;163277.94;4945065;28;20129;-67
2022/02/23 03:29:10;;;;;;;1999.90;999.90;;;;;;;3.43;100.00;163310.88;4945900;28;20090;-66
2022/02/23 03:31:36;;;;;;;1999.90;999.90;;;;;;;3.37;100.00;163295.78;4950282;28;20172;-66
2022/02/23 03:34:03;;;;;;;1999.90;999.90;;;;;;;3.57;100.00;163347.84;4945573;29;20154;-66
2022/02/23 03:36:30;;;;;;;1999.90;999.90;;;;;;;3.61;100.00;163358.81;4943592;28;20084;-66
2022/02/23 03:38:57;;;;;;;1999.90;999.90;;;;;;;3.92;100.00;163441.09;4944258;28;21291;-66
2022/02/23 03:41:23;;;;;;;1999.90;999.90;;;;;;;3.59;100.00;163353.31;4948722;28;20387;-66
2022/02/23 03:43:50;;;;;;;1999.90;999.90;;;;;;;3.34;100.00;163288.91;4946171;29;20059;-66
2022/02/23 03:46:16;;;;;;;1999.90;999.90;;;;;;;3.28;100.00;163272.47;4941291;28;20054;-66
2022/02/23 03:48:44;;;;;;;1999.90;999.90;;;;;;;3.38;100.00;163298.53;4944184;28;20055;-66
2022/02/23 03:51:11;;;;;;;1999.90;999.90;;;;;;;3.26;100.00;163267.00;4936020;28;20064;-67
2022/02/23 03:53:38;;;;;;;1999.90;999.90;;;;;;;3.68;100.00;163378.03;4946862;29;20086;-66
2022/02/23 03:56:38;;;;;;;1999.90;999.90;;;;;;;3.44;100.00;163313.56;4943550;28;20055;-66
2022/02/23 03:58:51;;;;;;;1999.90;999.90;;;;;;;3.57;100.00;163349.19;4942236;28;20082;-66
2022/02/23 04:01:18;;;;;;;1999.90;999.90;;;;;;;3.47;100.00;163323.19;4944134;28;20449;-66
2022/02/23 04:03:44;;;;;;;1999.90;999.90;;;;;;;3.33;100.00;163284.78;4948877;28;20099;-66
2022/02/23 04:06:11;;;;;;;1999.90;999.90;;;;;;;3.64;100.00;163368.41;4943694;28;20074;-66
2022/02/23 04:08:37;;;;;;;1999.90;999.90;;;;;;;3.81;100.00;163413.66;4942946;28;20122;-66
2022/02/23 04:11:04;;;;;;;1999.90;999.90;;;;;;;3.65;100.00;163369.81;4943645;28;20051;-66
2022/02/23 04:13:30;;;;;;;1999.90;999.90;;;;;;;3.60;100.00;163357.41;4948105;28;20050;-67
2022/02/23 04:15:56;;;;;;;1999.90;999.90;;;;;;;3.77;100.00;163402.69;4944429;29;20520;-66
2022/02/23 04:18:23;;;;;;;1999.90;999.90;;;;;;;3.76;100.00;163398.59;4942354;28;20125;-66
2022/02/23 04:20:50;;;;;;;1999.90;999.90;;;;;;;3.52;100.00;163336.88;4944090;28;20086;-66
2022/02/23 04:23:16;;;;;;;1999.90;999.90;;;;;;;3.27;100.00;163268.38;4948378;28;20055;-66
2022/02/23 04:25:43;;;;;;;1999.90;999.90;;;;;;;3.53;100.00;163339.63;4945530;29;20122;-66
2022/02/23 04:28:09;;;;;;;1999.90;999.90;;;;;;;3.83;100.00;163419.13;4939527;28;20619;-66
2022/02/23 04:30:36;;;;;;;1999.90;999.90;;;;;;;4.05;100.00;163478.09;4945462;28;20094;-66
2022/02/23 04:33:02;;;;;;;1999.90;999.90;;;;;;;3.70;100.00;163384.84;4947886;28;20078;-66
2022/02/23 04:35:29;;;;;;;1999.90;999.90;;;;;;;3.76;100.00;163398.59;4945493;29;20051;-66
2022/02/23 04:37:55;;;;;;;1999.90;999.90;;;;;;;3.59;100.00;163353.31;4941471;28;20100;-66
2022/02/23 04:40:22;;;;;;;1999.90;999.90;;;;;;;3.51;100.00;163334.16;4942941;28;20093;-66
2022/02/23 04:42:51;;;;;;;1999.90;999.90;;;;;;;3.27;100.00;163268.38;4948224;28;20436;-66
2022/02/23 04:45:18;;;;;;;1999.90;999.90;;;;;;;3.18;100.00;163246.41;4946127;28;20166;-66
2022/02/23 04:47:44;;;;;;;1999.90;999.90;;;;;;;3.28;100.00;163272.47;4942149;28;20095;-66
2022/02/23 04:50:11;;;;;;;1999.90;999.90;;;;;;;3.26;100.00;163265.59;4942973;28;20090;-66
2022/02/23 04:52:37;;;;;;;1999.90;999.90;;;;;;;3.59;100.00;163353.31;4947638;28;20047;-66
2022/02/23 04:55:04;;;;;;;1999.90;999.90;;;;;;;3.41;100.00;163305.34;4945078;29;20078;-66
2022/02/23 04:57:31;;;;;;;1999.90;999.90;;;;;;;3.21;100.00;163251.91;4943578;28;20154;-66
2022/02/23 04:59:57;;;;;;;1999.90;999.90;;;;;;;3.07;100.00;163214.94;4944152;28;20087;-66
2022/02/23 05:02:24;;;;;;;1999.90;999.90;;;;;;;3.34;100.00;163288.91;4948659;28;20408;-66
2022/02/23 05:04:50;;;;;;;1999.90;999.90;;;;;;;3.25;100.00;163264.25;4942164;28;20149;-66
2022/02/23 05:07:18;;;;;;;1999.90;999.90;;;;;;;3.37;100.00;163294.41;4943192;28;20093;-66
2022/02/23 05:09:45;;;;;;;1999.90;999.90;;;;;;;3.29;100.00;163275.22;4946904;28;20118;-66
2022/02/23 05:12:11;;;;;;;1999.90;999.90;;;;;;;3.64;100.00;163367.03;4945946;29;20103;-66
2022/02/23 05:14:38;;;;;;;1999.90;999.90;;;;;;;3.92;100.00;163442.44;4941668;28;20091;-66
2022/02/23 05:17:04;;;;;;;1999.90;999.90;;;;;;;3.72;100.00;163388.97;4942565;28;20102;-66
2022/02/23 05:19:34;;;;;;;1999.90;999.90;;;;;;;4.09;100.00;163486.31;4944635;28;20413;-66
2022/02/23 05:22:04;;;;;;;1999.90;999.90;;;;;;;4.07;100.00;163480.84;4945364;29;20491;-66
2022/02/23 05:24:33;;;;;;;1999.90;999.90;;;;;;;4.07;100.00;163480.84;4940526;28;20579;-66
2022/02/23 05:26:59;;;;;;;1999.90;999.90;;;;;;;4.26;100.00;163531.53;4941223;28;20401;-66
2022/02/23 05:29:26;;;;;;;1999.90;999.90;;;;;;;3.91;100.00;163439.69;4946311;28;20055;-66
2022/02/23 05:31:53;;;;;;;1999.90;999.90;;;;;;;3.31;100.00;163279.34;4943621;29;20087;-66
2022/02/23 05:34:20;;;;;;;1999.90;999.90;;;;;;;3.49;100.00;163327.31;4939383;28;20449;-66
2022/02/23 05:36:47;;;;;;;1999.90;999.90;;;;;;;4.00;100.00;163464.34;4941503;28;21163;-66
2022/02/23 05:39:14;;;;;;;1999.90;999.90;;;;;;;4.30;100.00;163543.94;4947068;28;20460;-66
2022/02/23 05:41:40;;;;;;;1999.90;999.90;;;;;;;3.89;100.00;163434.22;4935799;28;20091;-67
2022/02/23 05:44:07;;;;;;;1999.90;999.90;;;;;;;3.81;100.00;163413.66;4938424;28;20094;-66
2022/02/23 05:46:34;;;;;;;1999.90;999.90;;;;;;;3.71;100.00;163386.25;4934915;28;20051;-66
2022/02/23 05:49:00;;;;;;;1999.90;999.90;;;;;;;3.86;100.00;163427.34;4946551;28;20453;-66
2022/02/23 05:51:32;;;;;;;1999.90;999.90;;;;;;;4.01;100.00;163465.75;4943351;28;20055;-66
2022/02/23 05:53:59;;;;;;;1999.90;999.90;;;;;;;3.96;100.00;163452.03;4942917;28;20138;-66
2022/02/23 05:56:27;;;;;;;1999.90;999.90;;;;;;;3.95;100.00;163450.66;4942145;28;20365;-65
2022/02/23 05:58:54;;;;;;;1999.90;999.90;;;;;;;4.28;100.00;163537.06;4947944;28;20083;-66
2022/02/23 06:01:21;;;;;;;1999.90;999.90;;;;;;;4.29;100.00;163539.78;4944142;29;20094;-66
2022/02/23 06:03:48;;;;;;;1999.90;999.90;;;;;;;4.09;100.00;163487.66;4942331;28;20043;-66
2022/02/23 06:06:14;;;;;;;1999.90;999.90;;;;;;;4.20;100.00;163516.50;4942688;28;20086;-66
2022/02/23 06:08:41;;;;;;;1999.90;999.90;;;;;;;4.21;100.00;163519.22;4947545;28;20496;-66
2022/02/23 06:11:08;;;;;;;1999.90;999.90;;;;;;;4.39;100.00;163568.63;4943746;29;20130;-66
2022/02/23 06:13:35;;;;;;;1999.90;999.90;;;;;;;4.46;100.00;163586.41;4942820;28;20449;-66
2022/02/23 06:16:02;;;;;;;1999.90;999.90;;;;;;;4.40;100.00;163569.97;4944884;28;20459;-65
2022/02/23 06:18:29;;;;;;;1999.90;999.90;;;;;;;4.26;100.00;163531.53;4950023;28;20110;-65
2022/02/23 06:20:55;;;;;;;1999.90;999.90;;;;;;;4.36;100.00;163558.97;4949297;29;20055;-66
2022/02/23 06:23:23;;;;;;;1999.90;999.90;;;;;;;4.29;100.00;163541.19;4942030;28;20456;-66
2022/02/23 06:25:52;;;;;;;1999.90;999.90;;;;;;;4.33;100.00;163552.16;4945180;28;20101;-66
2022/02/23 06:28:20;;;;;;;1999.90;999.90;;;;;;;4.28;100.00;163537.06;4962368;28;20056;-66
2022/02/23 06:30:47;;;;;;;1999.90;999.90;;;;;;;4.40;100.00;163569.97;4949546;29;20081;-66
2022/02/23 06:33:18;;;;;;;1999.90;999.90;;;;;;;4.31;100.00;163546.66;4945612;28;20130;-66
2022/02/23 06:35:45;;;;;;;1999.90;999.90;;;;;;;4.67;100.00;163641.28;4945834;28;20425;-66
2022/02/23 06:38:12;;;;;;;1999.90;999.90;;;;;;;4.47;100.00;163589.19;4947017;28;21461;-66
2022/02/23 06:40:39;;;;;;;1999.90;999.90;;;;;;;4.59;100.00;163620.72;4951477;29;20067;-66
2022/02/23 06:43:06;;;;;;;1999.90;999.90;;;;;;;4.53;100.00;163605.63;4945931;28;20102;-66
2022/02/23 06:45:32;;;;;;;1999.90;999.90;;;;;;;4.71;100.00;163653.63;4946339;28;20086;-66
2022/02/23 06:47:58;;;;;;;1999.90;999.90;;;;;;;4.62;100.00;163627.59;4945866;28;20059;-66
2022/02/23 06:50:26;;;;;;;1999.90;999.90;;;;;;;4.67;100.00;163641.28;4948899;29;20588;-66
2022/02/23 06:52:55;;;;;;;1999.90;999.90;;;;;;;4.79;100.00;163674.19;4946219;28;20449;-66
2022/02/23 06:55:21;;;;;;;1999.90;999.90;;;;;;;4.88;100.00;163698.94;4945523;28;20055;-66
2022/02/23 06:57:48;;;;;;;1999.90;999.90;;;;;;;4.75;100.00;163663.25;4942049;28;20079;-66
2022/02/23 07:00:15;;;;;;;1999.90;999.90;;;;;;;5.02;99.91;163734.59;4950125;28;20054;-66
2022/02/23 07:02:41;;;;;;;1999.90;999.90;;;;;;;4.89;99.51;163701.63;4945334;29;20043;-66
2022/02/23 07:05:09;;;;;;;1999.90;999.90;;;;;;;4.86;99.44;163693.41;4944461;28;20083;-66
2022/02/23 07:07:35;;;;;;;1999.90;999.90;;;;;;;4.84;98.19;163686.53;4946383;28;20141;-66
2022/02/23 07:10:07;;;;;;;1999.90;999.90;;;;;;;5.10;97.41;163756.53;4948856;28;20053;-66
2022/02/23 07:12:35;;;;;;;1999.90;999.90;;;;;;;5.41;95.05;163838.88;4947806;29;20083;-66
2022/02/23 07:15:02;;;;;;;1999.90;999.90;;;;;;;5.60;95.78;163891.03;4945218;28;20110;-66
2022/02/23 07:17:29;;;;;;;1999.90;999.90;;;;;;;5.13;95.42;163764.75;4944133;28;20051;-67
2022/02/23 07:19:55;;;;;;;1999.90;999.90;;;;;;;4.83;95.42;163683.84;4949438;28;20075;-66
2022/02/23 07:22:22;;;;;;;1999.90;999.90;;;;;;;5.02;96.17;163734.59;4947879;29;20059;-67
2022/02/23 07:24:49;;;;;;;1999.90;999.90;;;;;;;5.15;95.96;163768.88;4943958;28;20073;-67
2022/02/23 07:27:16;;;;;;;1999.90;999.90;;;;;;;5.02;95.26;163734.59;4941871;28;20064;-67
2022/02/23 07:29:45;;;;;;;1999.90;999.90;;;;;;;4.82;95.38;163682.44;4948450;28;20512;-67
2022/02/23 07:32:13;;;;;;;1999.90;999.90;;;;;;;4.90;94.56;163704.41;4947881;29;20105;-66
2022/02/23 07:34:40;;;;;;;1999.90;999.90;;;;;;;5.20;94.04;163783.97;4944497;28;20109;-66
2022/02/23 07:37:06;;;;;;;1999.90;999.90;;;;;;;5.32;92.98;163814.19;4942964;28;20211;-67
2022/02/23 07:39:33;;;;;;;1999.90;999.90;;;;;;;5.22;93.43;163789.44;4945637;28;20386;-66
2022/02/23 07:42:00;;;;;;;1999.90;999.90;;;;;;;5.23;92.54;163790.84;4948646;29;20705;-66
2022/02/23 07:44:47;;;;;;;1999.90;999.90;;;;;;;5.16;92.70;163773.00;4944924;29;20408;-67
2022/02/23 07:47:14;;;;;;;1999.90;999.90;;;;;;;5.30;93.37;163810.06;4944522;28;20118;-66
2022/02/23 07:49:41;;;;;;;1999.90;999.90;;;;;;;5.19;91.94;163781.22;4943363;28;20055;-66
2022/02/23 07:52:08;;;;;;;1999.90;999.90;;;;;;;4.90;92.77;163704.41;4947451;28;20429;-67
2022/02/23 07:54:34;;;;;;;1999.90;999.90;;;;;;;5.24;91.92;163794.97;4945989;28;20162;-66
2022/02/23 07:57:01;;;;;;;1999.90;999.90;;;;;;;5.37;91.46;163827.88;4944286;28;20055;-66
2022/02/23 07:59:27;;;;;;;1999.90;999.90;;;;;;;5.67;90.03;163908.84;4942660;28;20413;-67
2022/02/23 08:01:54;;;;;;;1999.90;999.90;;;;;;;5.92;89.32;163974.78;4949560;28;20047;-67
2022/02/23 08:04:20;;;;;;;1999.90;999.90;;;;;;;5.89;89.21;163967.88;4946920;28;20484;-67
2022/02/23 08:06:47;;;;;;;1999.90;999.90;;;;;;;5.72;88.83;163922.59;4943734;28;20499;-67
2022/02/23 08:09:13;;;;;;;1999.90;999.90;;;;;;;5.94;88.64;163980.25;4943992;28;20131;-67
2022/02/23 08:11:41;;;;;;;1999.90;999.90;;;;;;;5.83;88.13;163951.44;4949805;28;20046;-67
2022/02/23 08:14:09;;;;;;;1999.90;999.90;;;;;;;5.59;88.76;163886.91;4946270;29;20307;-67
2022/02/23 08:19:31;;;;;;;1999.90;999.90;;;;;;;5.69;87.12;163914.38;4942714;28;20047;-67
2022/02/23 08:22:05;;;;;;;1999.90;999.90;;;;;;;5.85;87.40;163956.94;4944796;28;20143;-67
2022/02/23 08:24:35;;;;;;;1999.90;999.90;;;;;;;5.86;87.78;163959.66;4947876;28;20043;-67
2022/02/23 08:27:04;;;;;;;1999.90;999.90;;;;;;;5.65;88.47;163904.75;4945627;28;20137;-67
2022/02/23 08:29:31;;;;;;;1999.90;999.90;;;;;;;6.01;87.54;163998.16;4942269;28;20055;-67
2022/02/23 08:31:59;;;;;;;1999.90;999.90;;;;;;;6.05;86.80;164010.53;4944251;28;20055;-67
2022/02/23 08:34:26;;;;;;;1999.90;999.90;;;;;;;6.31;86.69;164080.56;4948236;28;20051;-67
2022/02/23 08:36:53;;;;;;;1999.90;999.90;;;;;;;5.86;86.38;163959.66;4948535;28;20051;-67
2022/02/23 08:39:21;;;;;;;1999.90;999.90;;;;;;;5.69;86.98;163913.03;4942423;28;20048;-67
2022/02/23 08:41:47;;;;;;;1999.90;999.90;;;;;;;6.03;86.77;164003.66;4943620;28;20047;-67
2022/02/23 08:44:19;;;;;;;1999.90;999.90;;;;;;;6.13;85.70;164031.09;4942231;28;20055;-67
2022/02/23 08:46:46;;;;;;;1999.90;999.90;;;;;;;6.18;86.13;164044.88;4949164;29;20079;-66
2022/02/23 08:49:13;;;;;;;1999.90;999.90;;;;;;;6.10;85.91;164022.88;4943553;28;20102;-67
2022/02/23 08:51:44;;;;;;;1999.90;999.90;;;;;;;6.20;85.42;164050.34;4943255;28;20437;-67
2022/02/23 08:54:11;;;;;;;1999.90;999.90;;;;;;;6.50;84.74;164130.00;4946069;28;20054;-67
2022/02/23 08:56:38;;;;;;;1999.90;999.90;;;;;;;6.27;84.87;164068.22;4948429;28;20051;-67
2022/02/23 08:59:05;;;;;;;1999.90;999.90;;;;;;;6.33;84.97;164084.69;4943988;29;20063;-67
2022/02/23 09:01:33;;;;;;;1999.90;999.90;;;;;;;6.39;85.04;164101.16;4944128;28;20065;-67
2022/02/23 09:04:03;;;;;;;1999.90;999.90;;;;;;;6.22;85.04;164054.47;4943125;28;20102;-67
2022/02/23 09:06:34;;;;;;;1999.90;999.90;;;;;;;6.39;85.90;164101.16;4962077;28;20043;-67
2022/02/23 09:09:03;;;;;;;1999.90;999.90;;;;;;;6.21;85.42;164053.09;4945853;29;20059;-67
2022/02/23 09:11:30;;;;;;;1999.90;999.90;;;;;;;6.28;85.36;164070.94;4943287;28;20425;-67
2022/02/23 09:13:57;;;;;;;1999.90;999.90;;;;;;;6.33;85.31;164086.03;4943478;28;20054;-67
2022/02/23 09:16:28;;;;;;;1999.90;999.90;;;;;;;5.91;85.33;163972.00;4946920;28;20742;-67
2022/02/23 09:18:55;;;;;;;1999.90;999.90;;;;;;;5.89;86.20;163967.88;4946482;29;20055;-67
2022/02/23 09:21:21;;;;;;;1999.90;999.90;;;;;;;6.06;85.85;164011.88;4942195;28;20400;-67
2022/02/23 09:23:49;;;;;;;1999.90;999.90;;;;;;;6.26;84.58;164066.81;4943305;28;20515;-67
2022/02/23 09:26:18;;;;;;;1999.90;999.90;;;;;;;6.02;85.43;164000.94;4944545;28;20106;-67
2022/02/23 09:28:44;;;;;;;1999.90;999.90;;;;;;;6.10;85.38;164024.28;4937654;29;20074;-67
2022/02/23 09:31:12;;;;;;;1999.90;999.90;;;;;;;6.44;84.51;164113.50;4942610;28;20063;-67
2022/02/23 09:33:41;;;;;;;1999.90;999.90;;;;;;;6.82;83.08;164215.19;4943916;28;20047;-67
2022/02/23 09:36:13;;;;;;;1999.90;999.90;;;;;;;7.26;82.27;164333.31;4946856;28;20094;-67
2022/02/23 09:38:41;;;;;;;1999.90;999.90;;;;;;;7.22;82.50;164322.34;4948973;28;20142;-68
2022/02/23 09:41:10;;;;;;;1999.90;999.90;;;;;;;6.98;82.22;164259.16;4945773;28;20134;-68
2022/02/23 09:43:37;;;;;;;1999.90;999.90;;;;;;;6.89;81.55;164234.38;4943914;28;20051;-68
2022/02/23 09:46:06;;;;;;;1999.90;999.90;;;;;;;6.64;83.75;164168.47;4942128;28;20052;-67
2022/02/23 09:48:33;;;;;;;1999.90;999.90;;;;;;;6.59;82.25;164154.69;4948070;28;20063;-68
2022/02/23 09:51:01;;;;;;;1999.90;999.90;;;;;;;6.62;83.21;164161.59;4937495;28;20047;-68
2022/02/23 09:53:28;;;;;;;1999.90;999.90;;;;;;;7.08;82.88;164285.22;4949023;28;20075;-68
2022/02/23 09:55:59;;;;;;;1999.90;999.90;;;;;;;7.02;82.32;164270.09;4947596;28;20146;-66
2022/02/23 09:58:26;;;;;;;1999.90;999.90;;;;;;;6.95;82.94;164250.91;4952908;28;20428;-65
2022/02/23 10:00:54;;;;;;;1999.90;999.90;;;;;;;7.26;82.02;164331.97;4950413;29;20338;-69
2022/02/23 10:03:22;;;;;;;1999.90;999.90;;;;;;;6.84;82.31;164220.66;4946186;28;20070;-68
2022/02/23 10:05:49;;;;;;;1999.90;999.90;;;;;;;6.84;83.66;164220.66;4946207;28;20102;-68
2022/02/23 10:08:15;;;;;;;1999.90;999.90;;;;;;;6.94;84.58;164248.16;4949437;28;20676;-68
2022/02/23 10:11:02;;;;;;;1999.90;999.90;;;;;;;6.83;83.06;164219.31;4952329;28;20067;-67
2022/02/23 10:13:29;;;;;;;1999.90;999.90;;;;;;;6.58;83.53;164150.59;4947476;28;20051;-68
2022/02/23 10:15:58;;;;;;;1999.90;999.90;;;;;;;6.57;85.71;164147.88;4946345;28;20404;-68
2022/02/23 10:18:45;;;;;;;1999.90;999.90;;;;;;;6.88;82.85;164233.03;4960013;28;20130;-68
2022/02/23 10:21:17;;;;;;;1999.90;999.90;;;;;;;6.89;83.57;164234.38;4941525;28;20051;-68
2022/02/23 10:23:43;;;;;;;1999.90;999.90;;;;;;;6.98;83.84;164257.75;4950483;29;20051;-68
2022/02/23 10:26:12;;;;;;;1999.90;999.90;;;;;;;7.01;83.64;164267.38;4947809;28;20055;-68
2022/02/23 10:28:39;;;;;;;1999.90;999.90;;;;;;;6.60;84.00;164157.47;4946654;28;20138;-68
2022/02/23 10:31:09;;;;;;;1999.90;999.90;;;;;;;7.29;82.74;164340.19;4949021;28;20102;-68
2022/02/23 10:33:38;;;;;;;1999.90;999.90;;;;;;;7.09;81.38;164286.63;4952053;28;20373;-66
2022/02/23 10:36:22;;;;;;;1999.90;999.90;;;;;;;6.92;80.61;164241.25;4947179;29;20047;-66
2022/02/23 10:38:57;;;;;;;1999.90;999.90;;;;;;;7.10;80.68;164289.34;4946859;28;20411;-67
2022/02/23 10:41:26;;;;;;;1999.90;999.90;;;;;;;7.22;80.01;164322.34;4946301;28;20471;-67
2022/02/23 10:43:53;;;;;;;1999.90;999.90;;;;;;;7.80;78.40;164476.25;4949834;28;20338;-67
2022/02/23 10:46:21;;;;;;;1999.90;999.90;;;;;;;8.12;77.19;164562.88;4951605;29;20062;-67
2022/02/23 10:48:52;;;;;;;1999.90;999.90;;;;;;;7.84;77.98;164487.25;4947735;28;20437;-67
2022/02/23 10:51:36;;;;;;;1999.90;999.90;;;;;;;7.84;77.65;164488.63;4947263;28;20368;-68
2022/02/23 10:54:06;;;;;;;1999.90;999.90;;;;;;;8.23;76.17;164591.75;4947349;28;20039;-68
2022/02/23 10:56:35;;;;;;;1999.90;999.90;;;;;;;7.89;77.32;164501.00;4951270;28;20063;-68